sensor_id;sensor_type;location;lat;lon;timestamp;P1;durP1;ratioP1;P2;durP2;ratioP2
86394;SDS011;77040;43.366;19.328;2024-03-06T00:00:47;6.00;;;3.85;;
86394;SDS011;77040;43.366;19.328;2024-03-06T00:03:13;7.28;;;3.60;;
86394;SDS011;77040;43.366;19.328;2024-03-06T00:05:38;4.82;;;3.38;;
86394;SDS011;77040;43.366;19.328;2024-03-06T00:08:04;5.90;;;3.55;;
86394;SDS011;77040;43.366;19.328;2024-03-06T00:10:30;5.60;;;3.38;;
86394;SDS011;77040;43.366;19.328;2024-03-06T00:12:55;5.93;;;3.40;;
86394;SDS011;77040;43.366;19.328;2024-03-06T00:15:21;5.43;;;3.22;;
86394;SDS011;77040;43.366;19.328;2024-03-06T00:17:46;8.32;;;4.57;;
86394;SDS011;77040;43.366;19.328;2024-03-06T00:20:12;5.45;;;3.88;;
86394;SDS011;77040;43.366;19.328;2024-03-06T00:22:39;8.75;;;3.80;;
86394;SDS011;77040;43.366;19.328;2024-03-06T00:25:05;6.47;;;3.50;;
86394;SDS011;77040;43.366;19.328;2024-03-06T00:27:31;6.88;;;3.42;;
86394;SDS011;77040;43.366;19.328;2024-03-06T00:29:59;8.05;;;4.20;;
86394;SDS011;77040;43.366;19.328;2024-03-06T00:32:25;7.90;;;4.10;;
86394;SDS011;77040;43.366;19.328;2024-03-06T00:34:50;7.25;;;4.15;;
86394;SDS011;77040;43.366;19.328;2024-03-06T00:37:16;7.75;;;3.90;;
86394;SDS011;77040;43.366;19.328;2024-03-06T00:39:42;9.43;;;4.85;;
86394;SDS011;77040;43.366;19.328;2024-03-06T00:42:08;10.18;;;4.53;;
86394;SDS011;77040;43.366;19.328;2024-03-06T00:44:35;10.13;;;5.70;;
86394;SDS011;77040;43.366;19.328;2024-03-06T00:47:01;13.50;;;7.20;;
86394;SDS011;77040;43.366;19.328;2024-03-06T00:49:27;14.55;;;5.75;;
86394;SDS011;77040;43.366;19.328;2024-03-06T00:51:52;13.98;;;6.85;;
86394;SDS011;77040;43.366;19.328;2024-03-06T00:54:18;12.43;;;6.20;;
86394;SDS011;77040;43.366;19.328;2024-03-06T00:56:44;13.75;;;6.43;;
86394;SDS011;77040;43.366;19.328;2024-03-06T00:59:10;13.00;;;6.63;;
86394;SDS011;77040;43.366;19.328;2024-03-06T01:01:36;12.07;;;5.50;;
86394;SDS011;77040;43.366;19.328;2024-03-06T01:04:02;10.95;;;5.38;;
86394;SDS011;77040;43.366;19.328;2024-03-06T01:06:27;10.43;;;5.53;;
86394;SDS011;77040;43.366;19.328;2024-03-06T01:08:53;12.73;;;6.85;;
86394;SDS011;77040;43.366;19.328;2024-03-06T01:13:45;11.38;;;5.28;;
86394;SDS011;77040;43.366;19.328;2024-03-06T01:16:10;12.65;;;5.47;;
86394;SDS011;77040;43.366;19.328;2024-03-06T01:18:36;10.80;;;5.57;;
86394;SDS011;77040;43.366;19.328;2024-03-06T01:21:02;10.70;;;5.65;;
86394;SDS011;77040;43.366;19.328;2024-03-06T01:23:28;10.40;;;5.85;;
86394;SDS011;77040;43.366;19.328;2024-03-06T01:25:54;10.68;;;5.20;;
86394;SDS011;77040;43.366;19.328;2024-03-06T01:28:19;11.07;;;5.60;;
86394;SDS011;77040;43.366;19.328;2024-03-06T01:30:45;12.32;;;5.70;;
86394;SDS011;77040;43.366;19.328;2024-03-06T01:33:11;10.25;;;5.80;;
86394;SDS011;77040;43.366;19.328;2024-03-06T01:35:36;10.57;;;4.85;;
86394;SDS011;77040;43.366;19.328;2024-03-06T01:38:02;8.10;;;4.80;;
86394;SDS011;77040;43.366;19.328;2024-03-06T01:40:28;10.60;;;5.63;;
86394;SDS011;77040;43.366;19.328;2024-03-06T01:42:54;12.80;;;6.38;;
86394;SDS011;77040;43.366;19.328;2024-03-06T01:45:20;9.07;;;5.10;;
86394;SDS011;77040;43.366;19.328;2024-03-06T01:47:50;9.38;;;5.05;;
86394;SDS011;77040;43.366;19.328;2024-03-06T01:50:16;11.30;;;5.32;;
86394;SDS011;77040;43.366;19.328;2024-03-06T01:52:42;9.43;;;5.45;;
86394;SDS011;77040;43.366;19.328;2024-03-06T01:55:09;9.05;;;5.13;;
86394;SDS011;77040;43.366;19.328;2024-03-06T01:57:35;10.60;;;5.05;;
86394;SDS011;77040;43.366;19.328;2024-03-06T02:00:02;10.38;;;5.50;;
86394;SDS011;77040;43.366;19.328;2024-03-06T02:02:28;10.00;;;5.13;;
86394;SDS011;77040;43.366;19.328;2024-03-06T02:04:54;9.10;;;5.22;;
86394;SDS011;77040;43.366;19.328;2024-03-06T02:07:20;9.02;;;5.15;;
86394;SDS011;77040;43.366;19.328;2024-03-06T02:09:45;8.43;;;5.40;;
86394;SDS011;77040;43.366;19.328;2024-03-06T02:12:11;9.10;;;5.50;;
86394;SDS011;77040;43.366;19.328;2024-03-06T02:14:38;9.23;;;5.47;;
86394;SDS011;77040;43.366;19.328;2024-03-06T02:17:03;12.00;;;5.35;;
86394;SDS011;77040;43.366;19.328;2024-03-06T02:19:42;9.52;;;4.90;;
86394;SDS011;77040;43.366;19.328;2024-03-06T02:22:09;11.30;;;5.45;;
86394;SDS011;77040;43.366;19.328;2024-03-06T02:24:35;8.27;;;4.50;;
86394;SDS011;77040;43.366;19.328;2024-03-06T02:27:02;10.95;;;5.50;;
86394;SDS011;77040;43.366;19.328;2024-03-06T02:29:31;9.13;;;6.03;;
86394;SDS011;77040;43.366;19.328;2024-03-06T02:31:58;9.40;;;5.70;;
86394;SDS011;77040;43.366;19.328;2024-03-06T02:34:23;9.55;;;4.93;;
86394;SDS011;77040;43.366;19.328;2024-03-06T02:36:50;12.75;;;6.40;;
86394;SDS011;77040;43.366;19.328;2024-03-06T02:39:16;12.48;;;5.93;;
86394;SDS011;77040;43.366;19.328;2024-03-06T02:41:43;11.35;;;6.40;;
86394;SDS011;77040;43.366;19.328;2024-03-06T02:46:34;13.60;;;6.13;;
86394;SDS011;77040;43.366;19.328;2024-03-06T02:49:00;12.93;;;6.22;;
86394;SDS011;77040;43.366;19.328;2024-03-06T02:51:26;12.52;;;6.25;;
86394;SDS011;77040;43.366;19.328;2024-03-06T02:53:51;11.77;;;6.47;;
86394;SDS011;77040;43.366;19.328;2024-03-06T02:56:18;11.65;;;5.85;;
86394;SDS011;77040;43.366;19.328;2024-03-06T02:58:47;13.65;;;6.40;;
86394;SDS011;77040;43.366;19.328;2024-03-06T03:01:14;10.63;;;6.28;;
86394;SDS011;77040;43.366;19.328;2024-03-06T03:03:42;11.48;;;6.32;;
86394;SDS011;77040;43.366;19.328;2024-03-06T03:06:09;15.07;;;6.90;;
86394;SDS011;77040;43.366;19.328;2024-03-06T03:08:36;13.70;;;6.78;;
86394;SDS011;77040;43.366;19.328;2024-03-06T03:11:02;14.02;;;7.70;;
86394;SDS011;77040;43.366;19.328;2024-03-06T03:13:28;13.93;;;6.43;;
86394;SDS011;77040;43.366;19.328;2024-03-06T03:15:55;12.23;;;7.03;;
86394;SDS011;77040;43.366;19.328;2024-03-06T03:18:21;13.07;;;6.72;;
86394;SDS011;77040;43.366;19.328;2024-03-06T03:20:47;14.82;;;7.15;;
86394;SDS011;77040;43.366;19.328;2024-03-06T03:26:09;12.60;;;7.05;;
86394;SDS011;77040;43.366;19.328;2024-03-06T03:28:38;13.55;;;6.75;;
86394;SDS011;77040;43.366;19.328;2024-03-06T03:31:07;13.18;;;6.63;;
86394;SDS011;77040;43.366;19.328;2024-03-06T03:33:34;11.20;;;6.75;;
86394;SDS011;77040;43.366;19.328;2024-03-06T03:36:04;13.10;;;6.88;;
86394;SDS011;77040;43.366;19.328;2024-03-06T03:38:33;13.35;;;6.97;;
86394;SDS011;77040;43.366;19.328;2024-03-06T03:41:08;13.25;;;7.35;;
86394;SDS011;77040;43.366;19.328;2024-03-06T03:43:41;13.13;;;7.22;;
86394;SDS011;77040;43.366;19.328;2024-03-06T03:46:08;15.48;;;7.82;;
86394;SDS011;77040;43.366;19.328;2024-03-06T03:48:34;15.68;;;7.82;;
86394;SDS011;77040;43.366;19.328;2024-03-06T03:51:05;14.75;;;7.40;;
86394;SDS011;77040;43.366;19.328;2024-03-06T03:53:32;17.85;;;7.35;;
86394;SDS011;77040;43.366;19.328;2024-03-06T03:55:59;14.88;;;7.78;;
86394;SDS011;77040;43.366;19.328;2024-03-06T04:00:50;17.80;;;8.50;;
86394;SDS011;77040;43.366;19.328;2024-03-06T04:03:20;19.15;;;7.70;;
86394;SDS011;77040;43.366;19.328;2024-03-06T04:05:51;14.50;;;7.50;;
86394;SDS011;77040;43.366;19.328;2024-03-06T04:08:16;15.07;;;7.38;;
86394;SDS011;77040;43.366;19.328;2024-03-06T04:10:42;13.40;;;7.35;;
86394;SDS011;77040;43.366;19.328;2024-03-06T04:13:12;15.45;;;6.28;;
86394;SDS011;77040;43.366;19.328;2024-03-06T04:15:38;14.70;;;6.80;;
86394;SDS011;77040;43.366;19.328;2024-03-06T04:18:07;14.35;;;7.03;;
86394;SDS011;77040;43.366;19.328;2024-03-06T04:22:58;14.48;;;6.40;;
86394;SDS011;77040;43.366;19.328;2024-03-06T04:25:23;13.15;;;6.40;;
86394;SDS011;77040;43.366;19.328;2024-03-06T04:27:49;11.80;;;6.30;;
86394;SDS011;77040;43.366;19.328;2024-03-06T04:30:15;16.42;;;6.78;;
86394;SDS011;77040;43.366;19.328;2024-03-06T04:32:41;12.48;;;6.18;;
86394;SDS011;77040;43.366;19.328;2024-03-06T04:35:06;11.65;;;5.55;;
86394;SDS011;77040;43.366;19.328;2024-03-06T04:37:34;11.38;;;6.20;;
86394;SDS011;77040;43.366;19.328;2024-03-06T04:40:01;10.55;;;6.07;;
86394;SDS011;77040;43.366;19.328;2024-03-06T04:42:28;12.93;;;6.82;;
86394;SDS011;77040;43.366;19.328;2024-03-06T04:44:54;11.40;;;6.30;;
86394;SDS011;77040;43.366;19.328;2024-03-06T04:47:20;11.10;;;6.05;;
86394;SDS011;77040;43.366;19.328;2024-03-06T04:49:45;10.27;;;5.40;;
86394;SDS011;77040;43.366;19.328;2024-03-06T04:52:11;12.50;;;6.45;;
86394;SDS011;77040;43.366;19.328;2024-03-06T04:54:37;11.23;;;5.50;;
86394;SDS011;77040;43.366;19.328;2024-03-06T04:57:02;13.27;;;6.18;;
86394;SDS011;77040;43.366;19.328;2024-03-06T04:59:29;11.48;;;6.63;;
86394;SDS011;77040;43.366;19.328;2024-03-06T05:04:20;14.02;;;6.13;;
86394;SDS011;77040;43.366;19.328;2024-03-06T05:06:46;11.32;;;6.28;;
86394;SDS011;77040;43.366;19.328;2024-03-06T05:09:12;13.85;;;6.97;;
86394;SDS011;77040;43.366;19.328;2024-03-06T05:11:40;11.95;;;5.75;;
86394;SDS011;77040;43.366;19.328;2024-03-06T05:14:05;12.57;;;6.63;;
86394;SDS011;77040;43.366;19.328;2024-03-06T05:16:31;10.80;;;5.90;;
86394;SDS011;77040;43.366;19.328;2024-03-06T05:18:56;10.80;;;5.43;;
86394;SDS011;77040;43.366;19.328;2024-03-06T05:21:22;9.68;;;5.22;;
86394;SDS011;77040;43.366;19.328;2024-03-06T05:23:50;12.95;;;5.93;;
86394;SDS011;77040;43.366;19.328;2024-03-06T05:26:16;14.02;;;6.25;;
86394;SDS011;77040;43.366;19.328;2024-03-06T05:28:42;10.02;;;5.65;;
86394;SDS011;77040;43.366;19.328;2024-03-06T05:31:17;13.20;;;6.20;;
86394;SDS011;77040;43.366;19.328;2024-03-06T05:33:50;10.88;;;6.10;;
86394;SDS011;77040;43.366;19.328;2024-03-06T05:36:15;11.18;;;5.70;;
86394;SDS011;77040;43.366;19.328;2024-03-06T05:38:43;11.98;;;6.35;;
86394;SDS011;77040;43.366;19.328;2024-03-06T05:41:17;12.93;;;6.18;;
86394;SDS011;77040;43.366;19.328;2024-03-06T05:43:44;13.30;;;7.20;;
86394;SDS011;77040;43.366;19.328;2024-03-06T05:46:09;13.50;;;7.30;;
86394;SDS011;77040;43.366;19.328;2024-03-06T05:48:37;10.23;;;6.10;;
86394;SDS011;77040;43.366;19.328;2024-03-06T05:51:12;14.38;;;7.28;;
86394;SDS011;77040;43.366;19.328;2024-03-06T05:53:37;12.05;;;6.10;;
86394;SDS011;77040;43.366;19.328;2024-03-06T05:56:07;12.25;;;6.32;;
86394;SDS011;77040;43.366;19.328;2024-03-06T05:58:33;11.45;;;6.47;;
86394;SDS011;77040;43.366;19.328;2024-03-06T06:01:02;11.77;;;6.57;;
86394;SDS011;77040;43.366;19.328;2024-03-06T06:03:31;12.65;;;6.15;;
86394;SDS011;77040;43.366;19.328;2024-03-06T06:05:56;11.93;;;6.40;;
86394;SDS011;77040;43.366;19.328;2024-03-06T06:08:23;13.52;;;6.88;;
86394;SDS011;77040;43.366;19.328;2024-03-06T06:10:49;11.02;;;6.53;;
86394;SDS011;77040;43.366;19.328;2024-03-06T06:13:16;11.60;;;6.70;;
86394;SDS011;77040;43.366;19.328;2024-03-06T06:15:43;12.00;;;6.22;;
86394;SDS011;77040;43.366;19.328;2024-03-06T06:18:09;10.88;;;6.05;;
86394;SDS011;77040;43.366;19.328;2024-03-06T06:20:36;13.45;;;7.07;;
86394;SDS011;77040;43.366;19.328;2024-03-06T06:23:01;12.10;;;6.72;;
86394;SDS011;77040;43.366;19.328;2024-03-06T06:25:27;11.65;;;6.28;;
86394;SDS011;77040;43.366;19.328;2024-03-06T06:27:55;9.98;;;6.00;;
86394;SDS011;77040;43.366;19.328;2024-03-06T06:30:21;12.10;;;6.50;;
86394;SDS011;77040;43.366;19.328;2024-03-06T06:35:13;11.00;;;6.43;;
86394;SDS011;77040;43.366;19.328;2024-03-06T06:37:39;10.68;;;6.38;;
86394;SDS011;77040;43.366;19.328;2024-03-06T06:40:08;12.23;;;6.68;;
86394;SDS011;77040;43.366;19.328;2024-03-06T06:42:34;11.45;;;6.57;;
86394;SDS011;77040;43.366;19.328;2024-03-06T06:45:00;11.00;;;6.32;;
86394;SDS011;77040;43.366;19.328;2024-03-06T06:47:27;11.23;;;6.63;;
86394;SDS011;77040;43.366;19.328;2024-03-06T06:49:53;12.57;;;6.63;;
86394;SDS011;77040;43.366;19.328;2024-03-06T06:52:19;11.68;;;6.30;;
86394;SDS011;77040;43.366;19.328;2024-03-06T06:54:49;13.13;;;7.25;;
86394;SDS011;77040;43.366;19.328;2024-03-06T06:57:16;12.25;;;7.03;;
86394;SDS011;77040;43.366;19.328;2024-03-06T06:59:42;11.80;;;6.78;;
86394;SDS011;77040;43.366;19.328;2024-03-06T07:02:08;13.10;;;8.35;;
86394;SDS011;77040;43.366;19.328;2024-03-06T07:04:33;12.50;;;7.15;;
86394;SDS011;77040;43.366;19.328;2024-03-06T07:06:59;12.55;;;7.50;;
86394;SDS011;77040;43.366;19.328;2024-03-06T07:09:25;13.85;;;7.47;;
86394;SDS011;77040;43.366;19.328;2024-03-06T07:11:54;16.35;;;8.68;;
86394;SDS011;77040;43.366;19.328;2024-03-06T07:14:21;13.55;;;7.78;;
86394;SDS011;77040;43.366;19.328;2024-03-06T07:16:46;14.07;;;7.85;;
86394;SDS011;77040;43.366;19.328;2024-03-06T07:19:12;13.95;;;7.50;;
86394;SDS011;77040;43.366;19.328;2024-03-06T07:21:38;14.10;;;8.15;;
86394;SDS011;77040;43.366;19.328;2024-03-06T07:24:04;14.82;;;8.30;;
86394;SDS011;77040;43.366;19.328;2024-03-06T07:26:35;19.38;;;9.77;;
86394;SDS011;77040;43.366;19.328;2024-03-06T07:29:00;17.15;;;8.80;;
86394;SDS011;77040;43.366;19.328;2024-03-06T07:31:28;15.73;;;9.45;;
86394;SDS011;77040;43.366;19.328;2024-03-06T07:33:53;16.48;;;9.10;;
86394;SDS011;77040;43.366;19.328;2024-03-06T07:36:19;19.75;;;8.77;;
86394;SDS011;77040;43.366;19.328;2024-03-06T07:38:45;13.43;;;8.57;;
86394;SDS011;77040;43.366;19.328;2024-03-06T07:41:11;13.82;;;8.55;;
86394;SDS011;77040;43.366;19.328;2024-03-06T07:43:37;14.75;;;8.77;;
86394;SDS011;77040;43.366;19.328;2024-03-06T07:46:04;14.45;;;8.77;;
86394;SDS011;77040;43.366;19.328;2024-03-06T07:48:36;18.15;;;9.23;;
86394;SDS011;77040;43.366;19.328;2024-03-06T07:51:02;16.70;;;10.55;;
86394;SDS011;77040;43.366;19.328;2024-03-06T07:53:28;22.42;;;18.48;;
86394;SDS011;77040;43.366;19.328;2024-03-06T07:55:53;26.70;;;24.10;;
86394;SDS011;77040;43.366;19.328;2024-03-06T07:58:19;43.58;;;40.10;;
86394;SDS011;77040;43.366;19.328;2024-03-06T08:00:46;57.78;;;53.70;;
86394;SDS011;77040;43.366;19.328;2024-03-06T08:03:12;64.72;;;59.72;;
86394;SDS011;77040;43.366;19.328;2024-03-06T08:05:39;60.13;;;55.78;;
86394;SDS011;77040;43.366;19.328;2024-03-06T08:08:04;57.05;;;52.75;;
86394;SDS011;77040;43.366;19.328;2024-03-06T08:10:30;56.38;;;51.88;;
86394;SDS011;77040;43.366;19.328;2024-03-06T08:12:56;54.15;;;49.95;;
86394;SDS011;77040;43.366;19.328;2024-03-06T08:15:22;50.75;;;46.97;;
86394;SDS011;77040;43.366;19.328;2024-03-06T08:17:48;50.75;;;46.85;;
86394;SDS011;77040;43.366;19.328;2024-03-06T08:20:14;46.22;;;42.42;;
86394;SDS011;77040;43.366;19.328;2024-03-06T08:22:41;47.45;;;43.63;;
86394;SDS011;77040;43.366;19.328;2024-03-06T08:25:07;45.45;;;41.80;;
86394;SDS011;77040;43.366;19.328;2024-03-06T08:27:38;45.47;;;41.78;;
86394;SDS011;77040;43.366;19.328;2024-03-06T08:30:05;41.22;;;37.92;;
86394;SDS011;77040;43.366;19.328;2024-03-06T08:32:32;40.13;;;36.50;;
86394;SDS011;77040;43.366;19.328;2024-03-06T08:35:00;40.45;;;36.92;;
86394;SDS011;77040;43.366;19.328;2024-03-06T08:37:33;37.20;;;33.92;;
86394;SDS011;77040;43.366;19.328;2024-03-06T08:40:02;37.70;;;34.53;;
86394;SDS011;77040;43.366;19.328;2024-03-06T08:42:28;35.42;;;32.10;;
86394;SDS011;77040;43.366;19.328;2024-03-06T08:44:54;32.75;;;29.67;;
86394;SDS011;77040;43.366;19.328;2024-03-06T08:47:20;32.30;;;29.40;;
86394;SDS011;77040;43.366;19.328;2024-03-06T08:49:45;30.48;;;27.48;;
86394;SDS011;77040;43.366;19.328;2024-03-06T08:52:11;31.17;;;28.08;;
86394;SDS011;77040;43.366;19.328;2024-03-06T08:54:38;30.55;;;27.52;;
86394;SDS011;77040;43.366;19.328;2024-03-06T08:57:03;29.38;;;26.48;;
86394;SDS011;77040;43.366;19.328;2024-03-06T08:59:29;27.75;;;24.98;;
86394;SDS011;77040;43.366;19.328;2024-03-06T09:01:55;26.52;;;23.95;;
86394;SDS011;77040;43.366;19.328;2024-03-06T09:04:21;26.85;;;24.20;;
86394;SDS011;77040;43.366;19.328;2024-03-06T09:06:47;23.80;;;21.50;;
86394;SDS011;77040;43.366;19.328;2024-03-06T09:09:14;25.38;;;23.08;;
86394;SDS011;77040;43.366;19.328;2024-03-06T09:11:43;22.60;;;20.40;;
86394;SDS011;77040;43.366;19.328;2024-03-06T09:14:09;22.65;;;20.35;;
86394;SDS011;77040;43.366;19.328;2024-03-06T09:16:35;23.00;;;20.73;;
86394;SDS011;77040;43.366;19.328;2024-03-06T09:19:01;19.75;;;17.73;;
86394;SDS011;77040;43.366;19.328;2024-03-06T09:21:27;21.75;;;19.40;;
86394;SDS011;77040;43.366;19.328;2024-03-06T09:23:53;19.30;;;17.33;;
86394;SDS011;77040;43.366;19.328;2024-03-06T09:26:19;18.67;;;16.67;;
86394;SDS011;77040;43.366;19.328;2024-03-06T09:28:45;18.70;;;16.73;;
86394;SDS011;77040;43.366;19.328;2024-03-06T09:31:11;18.92;;;16.92;;
86394;SDS011;77040;43.366;19.328;2024-03-06T09:33:39;19.42;;;16.08;;
86394;SDS011;77040;43.366;19.328;2024-03-06T09:36:05;17.77;;;15.80;;
86394;SDS011;77040;43.366;19.328;2024-03-06T09:38:31;17.05;;;15.32;;
86394;SDS011;77040;43.366;19.328;2024-03-06T09:40:57;19.35;;;15.25;;
86394;SDS011;77040;43.366;19.328;2024-03-06T09:43:22;16.38;;;14.63;;
86394;SDS011;77040;43.366;19.328;2024-03-06T09:48:14;14.98;;;13.40;;
86394;SDS011;77040;43.366;19.328;2024-03-06T09:50:43;15.98;;;13.73;;
86394;SDS011;77040;43.366;19.328;2024-03-06T09:53:11;15.13;;;12.50;;
86394;SDS011;77040;43.366;19.328;2024-03-06T09:55:38;15.05;;;12.27;;
86394;SDS011;77040;43.366;19.328;2024-03-06T09:58:03;15.52;;;12.25;;
86394;SDS011;77040;43.366;19.328;2024-03-06T10:00:30;12.90;;;10.73;;
86394;SDS011;77040;43.366;19.328;2024-03-06T10:02:58;14.23;;;11.35;;
86394;SDS011;77040;43.366;19.328;2024-03-06T10:05:26;15.32;;;11.65;;
86394;SDS011;77040;43.366;19.328;2024-03-06T10:07:52;13.85;;;11.13;;
86394;SDS011;77040;43.366;19.328;2024-03-06T10:10:19;12.60;;;10.55;;
86394;SDS011;77040;43.366;19.328;2024-03-06T10:12:46;13.48;;;10.40;;
86394;SDS011;77040;43.366;19.328;2024-03-06T10:15:13;12.52;;;9.75;;
86394;SDS011;77040;43.366;19.328;2024-03-06T10:17:39;12.23;;;10.05;;
86394;SDS011;77040;43.366;19.328;2024-03-06T10:22:49;12.10;;;8.95;;
86394;SDS011;77040;43.366;19.328;2024-03-06T10:25:18;13.23;;;9.48;;
86394;SDS011;77040;43.366;19.328;2024-03-06T10:28:06;15.65;;;10.10;;
86394;SDS011;77040;43.366;19.328;2024-03-06T10:30:34;11.57;;;8.48;;
86394;SDS011;77040;43.366;19.328;2024-03-06T10:33:04;12.27;;;9.73;;
86394;SDS011;77040;43.366;19.328;2024-03-06T10:35:33;10.70;;;8.73;;
86394;SDS011;77040;43.366;19.328;2024-03-06T10:38:00;11.07;;;8.45;;
86394;SDS011;77040;43.366;19.328;2024-03-06T10:40:27;11.32;;;8.20;;
86394;SDS011;77040;43.366;19.328;2024-03-06T10:42:57;13.02;;;8.27;;
86394;SDS011;77040;43.366;19.328;2024-03-06T10:45:25;12.13;;;8.13;;
86394;SDS011;77040;43.366;19.328;2024-03-06T10:48:00;10.30;;;7.60;;
86394;SDS011;77040;43.366;19.328;2024-03-06T10:50:27;10.50;;;7.82;;
86394;SDS011;77040;43.366;19.328;2024-03-06T10:52:55;12.38;;;8.27;;
86394;SDS011;77040;43.366;19.328;2024-03-06T10:55:22;9.75;;;7.90;;
86394;SDS011;77040;43.366;19.328;2024-03-06T10:57:48;11.60;;;8.73;;
86394;SDS011;77040;43.366;19.328;2024-03-06T11:00:15;10.98;;;8.27;;
86394;SDS011;77040;43.366;19.328;2024-03-06T11:02:46;10.82;;;7.68;;
86394;SDS011;77040;43.366;19.328;2024-03-06T11:05:15;11.63;;;8.20;;
86394;SDS011;77040;43.366;19.328;2024-03-06T11:07:42;11.77;;;7.70;;
86394;SDS011;77040;43.366;19.328;2024-03-06T11:10:09;10.52;;;8.02;;
86394;SDS011;77040;43.366;19.328;2024-03-06T11:12:41;12.60;;;7.95;;
86394;SDS011;77040;43.366;19.328;2024-03-06T11:15:14;9.55;;;7.40;;
86394;SDS011;77040;43.366;19.328;2024-03-06T11:17:40;10.80;;;7.78;;
86394;SDS011;77040;43.366;19.328;2024-03-06T11:20:13;11.77;;;7.80;;
86394;SDS011;77040;43.366;19.328;2024-03-06T11:28:14;11.48;;;7.53;;
86394;SDS011;77040;43.366;19.328;2024-03-06T11:30:44;12.45;;;7.90;;
86394;SDS011;77040;43.366;19.328;2024-03-06T11:33:14;11.30;;;7.18;;
86394;SDS011;77040;43.366;19.328;2024-03-06T11:35:43;12.23;;;7.18;;
86394;SDS011;77040;43.366;19.328;2024-03-06T11:38:29;11.02;;;7.05;;
86394;SDS011;77040;43.366;19.328;2024-03-06T11:40:54;12.07;;;7.30;;
86394;SDS011;77040;43.366;19.328;2024-03-06T11:43:23;10.93;;;7.03;;
86394;SDS011;77040;43.366;19.328;2024-03-06T11:45:50;11.40;;;6.50;;
86394;SDS011;77040;43.366;19.328;2024-03-06T11:48:15;9.63;;;6.35;;
86394;SDS011;77040;43.366;19.328;2024-03-06T11:50:42;10.70;;;6.70;;
86394;SDS011;77040;43.366;19.328;2024-03-06T11:53:08;11.52;;;7.40;;
86394;SDS011;77040;43.366;19.328;2024-03-06T11:55:34;10.77;;;6.57;;
86394;SDS011;77040;43.366;19.328;2024-03-06T11:57:59;12.57;;;6.50;;
86394;SDS011;77040;43.366;19.328;2024-03-06T12:00:25;9.63;;;6.50;;
86394;SDS011;77040;43.366;19.328;2024-03-06T12:02:50;10.80;;;6.72;;
86394;SDS011;77040;43.366;19.328;2024-03-06T12:05:17;11.30;;;6.13;;
86394;SDS011;77040;43.366;19.328;2024-03-06T12:07:47;9.48;;;5.72;;
86394;SDS011;77040;43.366;19.328;2024-03-06T12:10:18;9.15;;;5.50;;
86394;SDS011;77040;43.366;19.328;2024-03-06T12:12:44;8.57;;;5.05;;
86394;SDS011;77040;43.366;19.328;2024-03-06T12:15:11;8.27;;;4.68;;
86394;SDS011;77040;43.366;19.328;2024-03-06T12:17:49;8.68;;;4.72;;
86394;SDS011;77040;43.366;19.328;2024-03-06T12:20:17;10.35;;;4.90;;
86394;SDS011;77040;43.366;19.328;2024-03-06T12:22:49;7.97;;;4.50;;
86394;SDS011;77040;43.366;19.328;2024-03-06T12:25:22;7.45;;;4.07;;
86394;SDS011;77040;43.366;19.328;2024-03-06T12:27:49;7.85;;;4.43;;
86394;SDS011;77040;43.366;19.328;2024-03-06T12:30:18;6.95;;;3.75;;
86394;SDS011;77040;43.366;19.328;2024-03-06T12:32:58;9.95;;;4.38;;
86394;SDS011;77040;43.366;19.328;2024-03-06T12:35:25;5.32;;;3.63;;
86394;SDS011;77040;43.366;19.328;2024-03-06T12:37:53;7.25;;;4.25;;
86394;SDS011;77040;43.366;19.328;2024-03-06T12:40:22;6.35;;;3.47;;
86394;SDS011;77040;43.366;19.328;2024-03-06T12:42:49;5.88;;;3.88;;
86394;SDS011;77040;43.366;19.328;2024-03-06T12:45:17;7.30;;;3.90;;
86394;SDS011;77040;43.366;19.328;2024-03-06T12:47:43;6.93;;;3.92;;
86394;SDS011;77040;43.366;19.328;2024-03-06T12:50:10;8.25;;;3.40;;
86394;SDS011;77040;43.366;19.328;2024-03-06T12:52:37;5.10;;;3.35;;
86394;SDS011;77040;43.366;19.328;2024-03-06T12:55:03;6.57;;;3.40;;
86394;SDS011;77040;43.366;19.328;2024-03-06T12:57:32;8.30;;;3.55;;
86394;SDS011;77040;43.366;19.328;2024-03-06T12:59:58;7.53;;;3.65;;
86394;SDS011;77040;43.366;19.328;2024-03-06T13:02:24;7.03;;;3.33;;
86394;SDS011;77040;43.366;19.328;2024-03-06T13:04:49;6.22;;;3.30;;
86394;SDS011;77040;43.366;19.328;2024-03-06T13:07:16;7.32;;;3.42;;
86394;SDS011;77040;43.366;19.328;2024-03-06T13:09:44;6.72;;;3.72;;
86394;SDS011;77040;43.366;19.328;2024-03-06T13:12:10;7.18;;;3.20;;
86394;SDS011;77040;43.366;19.328;2024-03-06T13:14:36;6.90;;;3.72;;
86394;SDS011;77040;43.366;19.328;2024-03-06T13:17:01;8.20;;;3.40;;
86394;SDS011;77040;43.366;19.328;2024-03-06T13:19:28;7.38;;;3.45;;
86394;SDS011;77040;43.366;19.328;2024-03-06T13:21:55;6.60;;;3.50;;
86394;SDS011;77040;43.366;19.328;2024-03-06T13:26:47;10.05;;;3.35;;
86394;SDS011;77040;43.366;19.328;2024-03-06T13:29:13;8.85;;;3.63;;
86394;SDS011;77040;43.366;19.328;2024-03-06T13:31:39;8.75;;;3.47;;
86394;SDS011;77040;43.366;19.328;2024-03-06T13:34:17;11.30;;;4.85;;
86394;SDS011;77040;43.366;19.328;2024-03-06T13:40:05;9.60;;;3.28;;
86394;SDS011;77040;43.366;19.328;2024-03-06T13:42:33;8.35;;;3.33;;
86394;SDS011;77040;43.366;19.328;2024-03-06T13:44:59;9.02;;;3.30;;
86394;SDS011;77040;43.366;19.328;2024-03-06T13:47:24;8.63;;;3.60;;
86394;SDS011;77040;43.366;19.328;2024-03-06T13:49:51;9.48;;;3.20;;
86394;SDS011;77040;43.366;19.328;2024-03-06T13:52:16;7.35;;;3.90;;
86394;SDS011;77040;43.366;19.328;2024-03-06T13:54:45;9.70;;;3.22;;
86394;SDS011;77040;43.366;19.328;2024-03-06T13:57:11;6.50;;;2.95;;
86394;SDS011;77040;43.366;19.328;2024-03-06T13:59:37;7.28;;;3.00;;
86394;SDS011;77040;43.366;19.328;2024-03-06T14:02:06;8.80;;;3.30;;
86394;SDS011;77040;43.366;19.328;2024-03-06T14:04:32;10.18;;;3.33;;
86394;SDS011;77040;43.366;19.328;2024-03-06T14:06:57;6.53;;;2.90;;
86394;SDS011;77040;43.366;19.328;2024-03-06T14:09:25;7.60;;;3.38;;
86394;SDS011;77040;43.366;19.328;2024-03-06T14:11:52;9.23;;;3.40;;
86394;SDS011;77040;43.366;19.328;2024-03-06T14:14:18;8.15;;;3.30;;
86394;SDS011;77040;43.366;19.328;2024-03-06T14:16:44;8.55;;;3.47;;
86394;SDS011;77040;43.366;19.328;2024-03-06T14:19:10;7.72;;;2.92;;
86394;SDS011;77040;43.366;19.328;2024-03-06T14:21:36;10.90;;;2.80;;
86394;SDS011;77040;43.366;19.328;2024-03-06T14:24:03;10.95;;;4.15;;
86394;SDS011;77040;43.366;19.328;2024-03-06T14:26:31;9.05;;;3.05;;
86394;SDS011;77040;43.366;19.328;2024-03-06T14:28:57;9.93;;;2.97;;
86394;SDS011;77040;43.366;19.328;2024-03-06T14:31:26;6.63;;;3.50;;
86394;SDS011;77040;43.366;19.328;2024-03-06T14:33:54;7.60;;;2.97;;
86394;SDS011;77040;43.366;19.328;2024-03-06T14:36:19;7.00;;;3.08;;
86394;SDS011;77040;43.366;19.328;2024-03-06T14:38:47;10.73;;;4.15;;
86394;SDS011;77040;43.366;19.328;2024-03-06T14:41:13;9.93;;;4.10;;
86394;SDS011;77040;43.366;19.328;2024-03-06T14:43:38;9.77;;;3.60;;
86394;SDS011;77040;43.366;19.328;2024-03-06T14:46:04;8.95;;;4.68;;
86394;SDS011;77040;43.366;19.328;2024-03-06T14:48:31;9.07;;;4.03;;
86394;SDS011;77040;43.366;19.328;2024-03-06T14:50:58;9.38;;;3.92;;
86394;SDS011;77040;43.366;19.328;2024-03-06T14:53:26;7.93;;;3.92;;
86394;SDS011;77040;43.366;19.328;2024-03-06T14:55:52;7.97;;;4.07;;